sensor_id;sensor_type;location;lat;lon;timestamp;temperature;humidity
3348;DHT22;1687;49.540;8.574;2024-03-08T00:02:00;8.60;64.40
3348;DHT22;1687;49.540;8.574;2024-03-08T00:04:25;8.60;64.40
3348;DHT22;1687;49.540;8.574;2024-03-08T00:06:51;8.50;64.10
3348;DHT22;1687;49.540;8.574;2024-03-08T00:09:17;8.50;64.30
3348;DHT22;1687;49.540;8.574;2024-03-08T00:11:43;8.40;64.40
3348;DHT22;1687;49.540;8.574;2024-03-08T00:14:08;8.40;64.40
3348;DHT22;1687;49.540;8.574;2024-03-08T00:16:34;8.30;64.10
3348;DHT22;1687;49.540;8.574;2024-03-08T00:19:01;8.30;64.30
3348;DHT22;1687;49.540;8.574;2024-03-08T00:21:27;8.30;64.60
3348;DHT22;1687;49.540;8.574;2024-03-08T00:23:53;8.30;64.60
3348;DHT22;1687;49.540;8.574;2024-03-08T00:26:20;8.30;64.60
3348;DHT22;1687;49.540;8.574;2024-03-08T00:28:48;8.30;64.50
3348;DHT22;1687;49.540;8.574;2024-03-08T00:31:14;8.20;64.40
3348;DHT22;1687;49.540;8.574;2024-03-08T00:33:42;8.20;64.60
3348;DHT22;1687;49.540;8.574;2024-03-08T00:36:08;8.20;64.70
3348;DHT22;1687;49.540;8.574;2024-03-08T00:38:33;8.20;64.60
3348;DHT22;1687;49.540;8.574;2024-03-08T00:40:59;8.20;64.50
3348;DHT22;1687;49.540;8.574;2024-03-08T00:43:25;8.00;64.30
3348;DHT22;1687;49.540;8.574;2024-03-08T00:45:51;8.00;64.60
3348;DHT22;1687;49.540;8.574;2024-03-08T00:48:17;8.00;64.60
3348;DHT22;1687;49.540;8.574;2024-03-08T00:50:43;8.00;64.60
3348;DHT22;1687;49.540;8.574;2024-03-08T00:53:11;7.90;64.60
3348;DHT22;1687;49.540;8.574;2024-03-08T00:55:37;7.90;65.30
3348;DHT22;1687;49.540;8.574;2024-03-08T00:58:04;7.90;64.60
3348;DHT22;1687;49.540;8.574;2024-03-08T01:00:30;7.90;64.70
3348;DHT22;1687;49.540;8.574;2024-03-08T01:02:55;7.90;64.80
3348;DHT22;1687;49.540;8.574;2024-03-08T01:05:22;7.90;64.80
3348;DHT22;1687;49.540;8.574;2024-03-08T01:07:50;7.80;64.70
3348;DHT22;1687;49.540;8.574;2024-03-08T01:10:16;7.80;64.60
3348;DHT22;1687;49.540;8.574;2024-03-08T01:12:42;7.80;64.80
3348;DHT22;1687;49.540;8.574;2024-03-08T01:15:09;7.70;64.70
3348;DHT22;1687;49.540;8.574;2024-03-08T01:17:35;7.70;64.80
3348;DHT22;1687;49.540;8.574;2024-03-08T01:20:02;7.70;64.80
3348;DHT22;1687;49.540;8.574;2024-03-08T01:22:29;7.70;65.00
3348;DHT22;1687;49.540;8.574;2024-03-08T01:24:55;7.70;65.00
3348;DHT22;1687;49.540;8.574;2024-03-08T01:27:21;7.60;64.60
3348;DHT22;1687;49.540;8.574;2024-03-08T01:29:47;7.60;64.90
3348;DHT22;1687;49.540;8.574;2024-03-08T01:32:13;7.70;65.10
3348;DHT22;1687;49.540;8.574;2024-03-08T01:34:40;7.70;65.20
3348;DHT22;1687;49.540;8.574;2024-03-08T01:37:06;7.70;65.20
3348;DHT22;1687;49.540;8.574;2024-03-08T01:39:32;7.70;65.00
3348;DHT22;1687;49.540;8.574;2024-03-08T01:41:58;7.60;64.80
3348;DHT22;1687;49.540;8.574;2024-03-08T01:44:23;7.70;65.30
3348;DHT22;1687;49.540;8.574;2024-03-08T01:46:51;7.70;65.30
3348;DHT22;1687;49.540;8.574;2024-03-08T01:49:18;7.70;65.20
3348;DHT22;1687;49.540;8.574;2024-03-08T01:51:47;7.70;65.10
3348;DHT22;1687;49.540;8.574;2024-03-08T01:54:15;7.70;65.20
3348;DHT22;1687;49.540;8.574;2024-03-08T01:56:42;7.60;65.00
3348;DHT22;1687;49.540;8.574;2024-03-08T01:59:08;7.60;65.20
3348;DHT22;1687;49.540;8.574;2024-03-08T02:01:34;7.60;65.30
3348;DHT22;1687;49.540;8.574;2024-03-08T02:04:00;7.60;65.10
3348;DHT22;1687;49.540;8.574;2024-03-08T02:06:26;7.50;65.10
3348;DHT22;1687;49.540;8.574;2024-03-08T02:08:52;7.50;65.20
3348;DHT22;1687;49.540;8.574;2024-03-08T02:11:21;7.50;65.10
3348;DHT22;1687;49.540;8.574;2024-03-08T02:13:48;7.50;65.20
3348;DHT22;1687;49.540;8.574;2024-03-08T02:16:20;7.50;65.20
3348;DHT22;1687;49.540;8.574;2024-03-08T02:18:46;7.40;65.10
3348;DHT22;1687;49.540;8.574;2024-03-08T02:21:12;7.40;65.20
3348;DHT22;1687;49.540;8.574;2024-03-08T02:23:40;7.40;65.30
3348;DHT22;1687;49.540;8.574;2024-03-08T02:26:05;7.40;65.30
3348;DHT22;1687;49.540;8.574;2024-03-08T02:28:32;7.40;65.20
3348;DHT22;1687;49.540;8.574;2024-03-08T02:30:59;7.40;65.40
3348;DHT22;1687;49.540;8.574;2024-03-08T02:33:26;7.40;65.40
3348;DHT22;1687;49.540;8.574;2024-03-08T02:35:54;7.40;65.30
3348;DHT22;1687;49.540;8.574;2024-03-08T02:38:22;7.40;65.20
3348;DHT22;1687;49.540;8.574;2024-03-08T02:40:49;7.40;65.40
3348;DHT22;1687;49.540;8.574;2024-03-08T02:43:17;7.40;65.40
3348;DHT22;1687;49.540;8.574;2024-03-08T02:45:44;7.40;65.40
3348;DHT22;1687;49.540;8.574;2024-03-08T02:48:11;7.30;65.20
3348;DHT22;1687;49.540;8.574;2024-03-08T02:50:38;7.30;65.30
3348;DHT22;1687;49.540;8.574;2024-03-08T02:53:08;7.30;65.30
3348;DHT22;1687;49.540;8.574;2024-03-08T02:55:35;7.20;65.10
3348;DHT22;1687;49.540;8.574;2024-03-08T02:58:01;7.20;65.00
3348;DHT22;1687;49.540;8.574;2024-03-08T03:00:28;7.10;65.10
3348;DHT22;1687;49.540;8.574;2024-03-08T03:02:56;7.10;65.10
3348;DHT22;1687;49.540;8.574;2024-03-08T03:05:23;7.00;65.20
3348;DHT22;1687;49.540;8.574;2024-03-08T03:07:50;7.00;65.30
3348;DHT22;1687;49.540;8.574;2024-03-08T03:10:19;7.00;65.20
3348;DHT22;1687;49.540;8.574;2024-03-08T03:12:45;7.00;65.30
3348;DHT22;1687;49.540;8.574;2024-03-08T03:15:12;7.00;65.10
3348;DHT22;1687;49.540;8.574;2024-03-08T03:17:38;7.00;65.40
3348;DHT22;1687;49.540;8.574;2024-03-08T03:20:07;7.00;65.50
3348;DHT22;1687;49.540;8.574;2024-03-08T03:22:39;7.00;65.50
3348;DHT22;1687;49.540;8.574;2024-03-08T03:25:07;7.00;65.50
3348;DHT22;1687;49.540;8.574;2024-03-08T03:27:34;7.10;65.40
3348;DHT22;1687;49.540;8.574;2024-03-08T03:30:00;7.10;65.50
3348;DHT22;1687;49.540;8.574;2024-03-08T03:32:49;7.10;65.50
3348;DHT22;1687;49.540;8.574;2024-03-08T03:35:17;7.10;65.30
3348;DHT22;1687;49.540;8.574;2024-03-08T03:37:43;7.00;65.20
3348;DHT22;1687;49.540;8.574;2024-03-08T03:40:11;7.00;65.80
3348;DHT22;1687;49.540;8.574;2024-03-08T03:42:38;7.00;65.50
3348;DHT22;1687;49.540;8.574;2024-03-08T03:45:05;7.00;66.20
3348;DHT22;1687;49.540;8.574;2024-03-08T03:47:31;6.90;65.20
3348;DHT22;1687;49.540;8.574;2024-03-08T03:49:57;6.90;65.20
3348;DHT22;1687;49.540;8.574;2024-03-08T03:52:27;6.80;65.10
3348;DHT22;1687;49.540;8.574;2024-03-08T03:54:52;6.90;65.60
3348;DHT22;1687;49.540;8.574;2024-03-08T03:57:18;6.90;65.50
3348;DHT22;1687;49.540;8.574;2024-03-08T03:59:45;6.90;65.50
3348;DHT22;1687;49.540;8.574;2024-03-08T04:02:13;6.80;65.10
3348;DHT22;1687;49.540;8.574;2024-03-08T04:04:38;6.80;65.40
3348;DHT22;1687;49.540;8.574;2024-03-08T04:07:04;6.80;65.60
3348;DHT22;1687;49.540;8.574;2024-03-08T04:09:30;6.90;65.70
3348;DHT22;1687;49.540;8.574;2024-03-08T04:11:56;6.80;65.50
3348;DHT22;1687;49.540;8.574;2024-03-08T04:14:22;6.80;65.50
3348;DHT22;1687;49.540;8.574;2024-03-08T04:16:48;6.80;65.50
3348;DHT22;1687;49.540;8.574;2024-03-08T04:19:14;6.80;65.60
3348;DHT22;1687;49.540;8.574;2024-03-08T04:21:40;6.80;65.50
3348;DHT22;1687;49.540;8.574;2024-03-08T04:24:05;6.80;65.50
3348;DHT22;1687;49.540;8.574;2024-03-08T04:26:31;6.70;65.40
3348;DHT22;1687;49.540;8.574;2024-03-08T04:28:57;6.70;65.50
3348;DHT22;1687;49.540;8.574;2024-03-08T04:31:23;6.50;65.00
3348;DHT22;1687;49.540;8.574;2024-03-08T04:33:48;6.50;65.20
3348;DHT22;1687;49.540;8.574;2024-03-08T04:36:14;6.40;65.30
3348;DHT22;1687;49.540;8.574;2024-03-08T04:38:40;6.30;65.20
3348;DHT22;1687;49.540;8.574;2024-03-08T04:41:06;6.30;65.30
3348;DHT22;1687;49.540;8.574;2024-03-08T04:43:33;6.30;65.60
3348;DHT22;1687;49.540;8.574;2024-03-08T04:45:59;6.30;65.60
3348;DHT22;1687;49.540;8.574;2024-03-08T04:48:25;6.30;65.60
3348;DHT22;1687;49.540;8.574;2024-03-08T04:50:52;6.30;65.50
3348;DHT22;1687;49.540;8.574;2024-03-08T04:53:19;6.30;65.50
3348;DHT22;1687;49.540;8.574;2024-03-08T04:55:45;6.30;65.70
3348;DHT22;1687;49.540;8.574;2024-03-08T04:58:11;6.30;65.80
3348;DHT22;1687;49.540;8.574;2024-03-08T05:00:36;6.40;65.90
3348;DHT22;1687;49.540;8.574;2024-03-08T05:03:02;6.40;65.80
3348;DHT22;1687;49.540;8.574;2024-03-08T05:05:28;6.40;65.90
3348;DHT22;1687;49.540;8.574;2024-03-08T05:07:54;6.40;65.90
3348;DHT22;1687;49.540;8.574;2024-03-08T05:10:19;6.40;65.90
3348;DHT22;1687;49.540;8.574;2024-03-08T05:12:45;6.40;65.70
3348;DHT22;1687;49.540;8.574;2024-03-08T05:15:11;6.40;65.70
3348;DHT22;1687;49.540;8.574;2024-03-08T05:17:37;6.40;65.80
3348;DHT22;1687;49.540;8.574;2024-03-08T05:20:02;6.40;65.90
3348;DHT22;1687;49.540;8.574;2024-03-08T05:22:29;6.30;65.70
3348;DHT22;1687;49.540;8.574;2024-03-08T05:24:55;6.30;65.70
3348;DHT22;1687;49.540;8.574;2024-03-08T05:27:20;6.40;66.10
3348;DHT22;1687;49.540;8.574;2024-03-08T05:29:46;6.40;66.20
3348;DHT22;1687;49.540;8.574;2024-03-08T05:32:12;6.40;66.20
3348;DHT22;1687;49.540;8.574;2024-03-08T05:34:38;6.50;66.10
3348;DHT22;1687;49.540;8.574;2024-03-08T05:37:04;6.50;66.10
3348;DHT22;1687;49.540;8.574;2024-03-08T05:39:30;6.60;66.40
3348;DHT22;1687;49.540;8.574;2024-03-08T05:41:55;6.60;66.20
3348;DHT22;1687;49.540;8.574;2024-03-08T05:44:21;6.60;66.30
3348;DHT22;1687;49.540;8.574;2024-03-08T05:46:47;6.60;66.40
3348;DHT22;1687;49.540;8.574;2024-03-08T05:49:12;6.60;66.40
3348;DHT22;1687;49.540;8.574;2024-03-08T05:51:39;6.70;66.50
3348;DHT22;1687;49.540;8.574;2024-03-08T05:54:08;6.70;66.30
3348;DHT22;1687;49.540;8.574;2024-03-08T05:56:35;6.60;66.50
3348;DHT22;1687;49.540;8.574;2024-03-08T05:59:02;6.60;66.40
3348;DHT22;1687;49.540;8.574;2024-03-08T06:01:28;6.60;66.20
3348;DHT22;1687;49.540;8.574;2024-03-08T06:03:55;6.60;66.40
3348;DHT22;1687;49.540;8.574;2024-03-08T06:06:23;6.60;66.30
3348;DHT22;1687;49.540;8.574;2024-03-08T06:08:49;6.60;66.30
3348;DHT22;1687;49.540;8.574;2024-03-08T06:11:16;6.60;66.30
3348;DHT22;1687;49.540;8.574;2024-03-08T06:13:44;6.50;66.00
3348;DHT22;1687;49.540;8.574;2024-03-08T06:16:10;6.40;66.10
3348;DHT22;1687;49.540;8.574;2024-03-08T06:18:36;6.40;66.20
3348;DHT22;1687;49.540;8.574;2024-03-08T06:21:05;6.40;66.30
3348;DHT22;1687;49.540;8.574;2024-03-08T06:23:32;6.40;66.40
3348;DHT22;1687;49.540;8.574;2024-03-08T06:25:58;6.50;66.60
3348;DHT22;1687;49.540;8.574;2024-03-08T06:28:24;6.50;66.80
3348;DHT22;1687;49.540;8.574;2024-03-08T06:30:50;6.50;66.40
3348;DHT22;1687;49.540;8.574;2024-03-08T06:33:17;6.50;66.60
3348;DHT22;1687;49.540;8.574;2024-03-08T06:35:43;6.50;66.20
3348;DHT22;1687;49.540;8.574;2024-03-08T06:38:09;6.50;66.30
3348;DHT22;1687;49.540;8.574;2024-03-08T06:40:35;6.50;66.40
3348;DHT22;1687;49.540;8.574;2024-03-08T06:43:00;6.60;66.60
3348;DHT22;1687;49.540;8.574;2024-03-08T06:45:26;6.50;66.40
3348;DHT22;1687;49.540;8.574;2024-03-08T06:47:52;6.50;66.30
3348;DHT22;1687;49.540;8.574;2024-03-08T06:50:17;6.60;66.80
3348;DHT22;1687;49.540;8.574;2024-03-08T06:52:43;6.60;66.80
3348;DHT22;1687;49.540;8.574;2024-03-08T06:55:10;6.60;66.50
3348;DHT22;1687;49.540;8.574;2024-03-08T06:57:41;6.70;66.80
3348;DHT22;1687;49.540;8.574;2024-03-08T07:00:08;6.80;67.00
3348;DHT22;1687;49.540;8.574;2024-03-08T07:02:44;6.80;66.70
3348;DHT22;1687;49.540;8.574;2024-03-08T07:05:14;6.80;66.80
3348;DHT22;1687;49.540;8.574;2024-03-08T07:07:41;6.90;67.00
3348;DHT22;1687;49.540;8.574;2024-03-08T07:10:08;6.90;66.90
3348;DHT22;1687;49.540;8.574;2024-03-08T07:12:37;7.00;67.00
3348;DHT22;1687;49.540;8.574;2024-03-08T07:15:05;7.00;66.80
3348;DHT22;1687;49.540;8.574;2024-03-08T07:17:31;7.10;67.00
3348;DHT22;1687;49.540;8.574;2024-03-08T07:19:59;7.00;66.40
3348;DHT22;1687;49.540;8.574;2024-03-08T07:22:32;6.90;66.30
3348;DHT22;1687;49.540;8.574;2024-03-08T07:24:58;6.90;66.90
3348;DHT22;1687;49.540;8.574;2024-03-08T07:27:45;7.00;67.00
3348;DHT22;1687;49.540;8.574;2024-03-08T07:30:11;7.20;67.30
3348;DHT22;1687;49.540;8.574;2024-03-08T07:32:37;7.20;67.10
3348;DHT22;1687;49.540;8.574;2024-03-08T07:35:03;7.20;66.70
3348;DHT22;1687;49.540;8.574;2024-03-08T07:37:29;7.10;66.60
3348;DHT22;1687;49.540;8.574;2024-03-08T07:39:56;7.20;67.10
3348;DHT22;1687;49.540;8.574;2024-03-08T07:42:23;7.30;67.20
3348;DHT22;1687;49.540;8.574;2024-03-08T07:44:49;7.30;66.80
3348;DHT22;1687;49.540;8.574;2024-03-08T07:47:15;7.30;66.90
3348;DHT22;1687;49.540;8.574;2024-03-08T07:49:42;7.30;67.80
3348;DHT22;1687;49.540;8.574;2024-03-08T07:52:09;7.30;66.80
3348;DHT22;1687;49.540;8.574;2024-03-08T07:54:40;7.30;66.70
3348;DHT22;1687;49.540;8.574;2024-03-08T07:57:06;7.30;66.90
3348;DHT22;1687;49.540;8.574;2024-03-08T07:59:32;7.40;67.10
3348;DHT22;1687;49.540;8.574;2024-03-08T08:01:58;7.50;67.00
3348;DHT22;1687;49.540;8.574;2024-03-08T08:04:25;7.50;66.90
3348;DHT22;1687;49.540;8.574;2024-03-08T08:06:51;7.50;66.70
3348;DHT22;1687;49.540;8.574;2024-03-08T08:09:18;7.50;66.90
3348;DHT22;1687;49.540;8.574;2024-03-08T08:11:54;7.60;67.20
3348;DHT22;1687;49.540;8.574;2024-03-08T08:14:20;7.60;67.00
3348;DHT22;1687;49.540;8.574;2024-03-08T08:16:47;7.70;67.70
3348;DHT22;1687;49.540;8.574;2024-03-08T08:19:14;7.70;67.00
3348;DHT22;1687;49.540;8.574;2024-03-08T08:21:41;7.70;66.80
3348;DHT22;1687;49.540;8.574;2024-03-08T08:24:07;7.80;66.90
3348;DHT22;1687;49.540;8.574;2024-03-08T08:26:32;7.80;66.90
3348;DHT22;1687;49.540;8.574;2024-03-08T08:28:59;7.90;66.80
3348;DHT22;1687;49.540;8.574;2024-03-08T08:31:25;8.00;67.10
3348;DHT22;1687;49.540;8.574;2024-03-08T08:33:51;8.00;66.80
3348;DHT22;1687;49.540;8.574;2024-03-08T08:36:23;8.00;66.80
3348;DHT22;1687;49.540;8.574;2024-03-08T08:38:49;8.10;67.00
3348;DHT22;1687;49.540;8.574;2024-03-08T08:41:15;8.20;67.00
3348;DHT22;1687;49.540;8.574;2024-03-08T08:43:42;8.30;67.10
3348;DHT22;1687;49.540;8.574;2024-03-08T08:46:11;8.40;67.10
3348;DHT22;1687;49.540;8.574;2024-03-08T08:48:41;8.60;67.10
3348;DHT22;1687;49.540;8.574;2024-03-08T08:51:10;8.50;66.30
3348;DHT22;1687;49.540;8.574;2024-03-08T08:53:41;8.50;66.70
3348;DHT22;1687;49.540;8.574;2024-03-08T08:56:08;8.60;66.80
3348;DHT22;1687;49.540;8.574;2024-03-08T08:58:34;8.60;66.50
3348;DHT22;1687;49.540;8.574;2024-03-08T09:01:00;8.60;66.10
3348;DHT22;1687;49.540;8.574;2024-03-08T09:03:26;8.50;66.00
3348;DHT22;1687;49.540;8.574;2024-03-08T09:05:53;8.50;66.20
3348;DHT22;1687;49.540;8.574;2024-03-08T09:08:19;8.60;66.30
3348;DHT22;1687;49.540;8.574;2024-03-08T09:10:45;8.70;66.60
3348;DHT22;1687;49.540;8.574;2024-03-08T09:13:14;8.80;66.30
3348;DHT22;1687;49.540;8.574;2024-03-08T09:15:39;8.90;66.40
3348;DHT22;1687;49.540;8.574;2024-03-08T09:18:07;9.00;67.10
3348;DHT22;1687;49.540;8.574;2024-03-08T09:20:34;9.20;66.40
3348;DHT22;1687;49.540;8.574;2024-03-08T09:23:00;9.30;66.40
3348;DHT22;1687;49.540;8.574;2024-03-08T09:25:26;9.30;66.10
3348;DHT22;1687;49.540;8.574;2024-03-08T09:27:51;9.40;66.20
3348;DHT22;1687;49.540;8.574;2024-03-08T09:30:17;9.50;66.00
3348;DHT22;1687;49.540;8.574;2024-03-08T09:32:43;9.50;66.10
3348;DHT22;1687;49.540;8.574;2024-03-08T09:35:09;9.60;66.00
3348;DHT22;1687;49.540;8.574;2024-03-08T09:37:35;9.60;65.90
3348;DHT22;1687;49.540;8.574;2024-03-08T09:40:01;9.70;66.00
3348;DHT22;1687;49.540;8.574;2024-03-08T09:42:30;9.70;65.90
3348;DHT22;1687;49.540;8.574;2024-03-08T09:44:57;9.80;65.70
3348;DHT22;1687;49.540;8.574;2024-03-08T09:47:25;9.90;65.90
3348;DHT22;1687;49.540;8.574;2024-03-08T09:49:54;10.00;64.50
3348;DHT22;1687;49.540;8.574;2024-03-08T09:52:20;10.00;64.50
3348;DHT22;1687;49.540;8.574;2024-03-08T09:54:46;10.10;64.30
3348;DHT22;1687;49.540;8.574;2024-03-08T09:57:12;10.10;64.00
3348;DHT22;1687;49.540;8.574;2024-03-08T09:59:38;10.10;64.00
3348;DHT22;1687;49.540;8.574;2024-03-08T10:02:04;10.00;63.80
3348;DHT22;1687;49.540;8.574;2024-03-08T10:04:30;10.10;64.20
3348;DHT22;1687;49.540;8.574;2024-03-08T10:06:58;10.20;64.10
3348;DHT22;1687;49.540;8.574;2024-03-08T10:09:25;10.20;64.00
3348;DHT22;1687;49.540;8.574;2024-03-08T10:11:59;10.20;63.50
3348;DHT22;1687;49.540;8.574;2024-03-08T10:14:25;10.20;63.80
3348;DHT22;1687;49.540;8.574;2024-03-08T10:16:52;10.20;63.90
3348;DHT22;1687;49.540;8.574;2024-03-08T10:19:18;10.20;63.40
3348;DHT22;1687;49.540;8.574;2024-03-08T10:21:50;10.40;63.90
3348;DHT22;1687;49.540;8.574;2024-03-08T10:24:18;10.50;63.80
3348;DHT22;1687;49.540;8.574;2024-03-08T10:26:44;10.50;63.40
3348;DHT22;1687;49.540;8.574;2024-03-08T10:29:10;10.60;63.40
3348;DHT22;1687;49.540;8.574;2024-03-08T10:31:43;10.60;63.50
3348;DHT22;1687;49.540;8.574;2024-03-08T10:34:10;10.70;63.30
3348;DHT22;1687;49.540;8.574;2024-03-08T10:36:36;10.80;63.40
3348;DHT22;1687;49.540;8.574;2024-03-08T10:39:12;10.90;63.30
3348;DHT22;1687;49.540;8.574;2024-03-08T10:41:58;10.80;62.80
3348;DHT22;1687;49.540;8.574;2024-03-08T10:44:40;10.80;62.70
3348;DHT22;1687;49.540;8.574;2024-03-08T10:47:26;10.80;62.90
3348;DHT22;1687;49.540;8.574;2024-03-08T10:50:09;10.80;62.70
3348;DHT22;1687;49.540;8.574;2024-03-08T10:52:38;10.90;63.00
3348;DHT22;1687;49.540;8.574;2024-03-08T10:55:05;11.00;63.00
3348;DHT22;1687;49.540;8.574;2024-03-08T10:57:38;11.20;63.00
3348;DHT22;1687;49.540;8.574;2024-03-08T11:00:06;11.20;62.70
3348;DHT22;1687;49.540;8.574;2024-03-08T11:02:35;11.30;62.90
3348;DHT22;1687;49.540;8.574;2024-03-08T11:05:03;11.30;62.50
3348;DHT22;1687;49.540;8.574;2024-03-08T11:07:33;11.40;62.70
3348;DHT22;1687;49.540;8.574;2024-03-08T11:10:02;11.40;62.30
3348;DHT22;1687;49.540;8.574;2024-03-08T11:12:38;11.40;62.00
3348;DHT22;1687;49.540;8.574;2024-03-08T11:15:12;11.20;62.10
3348;DHT22;1687;49.540;8.574;2024-03-08T11:17:50;11.10;61.70
3348;DHT22;1687;49.540;8.574;2024-03-08T11:20:17;11.00;61.90
3348;DHT22;1687;49.540;8.574;2024-03-08T11:22:55;11.10;61.90
3348;DHT22;1687;49.540;8.574;2024-03-08T11:28:08;11.10;61.60
3348;DHT22;1687;49.540;8.574;2024-03-08T11:33:29;11.10;61.60
3348;DHT22;1687;49.540;8.574;2024-03-08T11:36:12;11.20;61.90
3348;DHT22;1687;49.540;8.574;2024-03-08T11:38:47;11.40;61.90
3348;DHT22;1687;49.540;8.574;2024-03-08T11:41:21;11.50;61.80
3348;DHT22;1687;49.540;8.574;2024-03-08T11:43:49;11.50;61.50
3348;DHT22;1687;49.540;8.574;2024-03-08T11:46:16;11.60;61.60
3348;DHT22;1687;49.540;8.574;2024-03-08T11:48:44;11.60;61.30
3348;DHT22;1687;49.540;8.574;2024-03-08T11:51:13;11.60;61.30
3348;DHT22;1687;49.540;8.574;2024-03-08T11:53:40;11.60;61.30
3348;DHT22;1687;49.540;8.574;2024-03-08T11:56:13;11.60;61.10
3348;DHT22;1687;49.540;8.574;2024-03-08T11:58:40;11.70;61.50
3348;DHT22;1687;49.540;8.574;2024-03-08T12:01:10;11.80;61.20
3348;DHT22;1687;49.540;8.574;2024-03-08T12:03:39;11.90;61.20
3348;DHT22;1687;49.540;8.574;2024-03-08T12:06:08;11.90;61.10
3348;DHT22;1687;49.540;8.574;2024-03-08T12:08:35;12.00;61.10
3348;DHT22;1687;49.540;8.574;2024-03-08T12:11:04;12.10;61.20
3348;DHT22;1687;49.540;8.574;2024-03-08T12:13:34;12.20;61.20
3348;DHT22;1687;49.540;8.574;2024-03-08T12:16:03;12.20;61.00
3348;DHT22;1687;49.540;8.574;2024-03-08T12:18:33;12.30;60.90
3348;DHT22;1687;49.540;8.574;2024-03-08T12:21:09;12.30;60.80
3348;DHT22;1687;49.540;8.574;2024-03-08T12:23:40;12.30;60.90
3348;DHT22;1687;49.540;8.574;2024-03-08T12:26:18;12.30;60.80
3348;DHT22;1687;49.540;8.574;2024-03-08T12:28:49;12.40;60.70
3348;DHT22;1687;49.540;8.574;2024-03-08T12:31:16;12.40;60.50
3348;DHT22;1687;49.540;8.574;2024-03-08T12:33:53;12.40;60.60
3348;DHT22;1687;49.540;8.574;2024-03-08T12:36:21;12.50;60.50
3348;DHT22;1687;49.540;8.574;2024-03-08T12:38:47;12.50;60.40
3348;DHT22;1687;49.540;8.574;2024-03-08T12:41:17;12.60;60.40
3348;DHT22;1687;49.540;8.574;2024-03-08T12:43:44;12.60;60.40
